Terminal Aerodrome Forecast
Issued by NWS Wilmington, OH

Current Version | Previous Version | Graphics & Text | Print | Product List | Glossary On
Versions: 1 2 3 4 5 6 7 8 9 10 11 12 13 14 15 16 17 18 19 20 21 22 23 24 25 26
248
FTUS41 KILN 011121
TAFILN
TAF
KILN 011121Z 0112/0212 23006KT 5SM BR BKN012
      TEMPO 0112/0114 4SM BR BKN006
     FM011400 26006KT P6SM BKN025
     FM011700 26006KT P6SM VCSH BKN025 BKN035
     FM012100 27005KT P6SM VCSH SCT025 BKN040
     FM020200 21005KT P6SM SCT050 BKN080
     FM020600 21005KT P6SM VCSH BKN050=

USA.gov is the U.S. government's official web portal to all federal, state and local government web resources and services.